sensor_id;sensor_type;location;lat;lon;timestamp;P1;durP1;ratioP1;P2;durP2;ratioP2
14892;SDS011;7538;53.626;9.906;2023-07-31T00:01:22;7.28;;;2.63;;
14892;SDS011;7538;53.626;9.906;2023-07-31T00:03:49;5.40;;;2.28;;
14892;SDS011;7538;53.626;9.906;2023-07-31T00:06:15;8.23;;;3.42;;
14892;SDS011;7538;53.626;9.906;2023-07-31T00:08:42;4.38;;;2.17;;
14892;SDS011;7538;53.626;9.906;2023-07-31T00:11:09;5.85;;;2.80;;
14892;SDS011;7538;53.626;9.906;2023-07-31T00:13:36;4.30;;;2.35;;
14892;SDS011;7538;53.626;9.906;2023-07-31T00:16:03;5.45;;;2.45;;
14892;SDS011;7538;53.626;9.906;2023-07-31T00:18:31;6.30;;;2.67;;
14892;SDS011;7538;53.626;9.906;2023-07-31T00:20:58;10.10;;;3.13;;
14892;SDS011;7538;53.626;9.906;2023-07-31T00:23:24;5.20;;;2.63;;
14892;SDS011;7538;53.626;9.906;2023-07-31T00:25:51;5.10;;;2.63;;
14892;SDS011;7538;53.626;9.906;2023-07-31T00:28:20;6.35;;;2.70;;
14892;SDS011;7538;53.626;9.906;2023-07-31T00:30:49;5.70;;;2.30;;
14892;SDS011;7538;53.626;9.906;2023-07-31T00:33:16;8.68;;;2.88;;
14892;SDS011;7538;53.626;9.906;2023-07-31T00:35:44;6.93;;;2.63;;
14892;SDS011;7538;53.626;9.906;2023-07-31T00:38:12;6.47;;;2.67;;
14892;SDS011;7538;53.626;9.906;2023-07-31T00:40:43;4.63;;;2.30;;
14892;SDS011;7538;53.626;9.906;2023-07-31T00:43:10;5.80;;;2.60;;
14892;SDS011;7538;53.626;9.906;2023-07-31T00:45:37;8.65;;;2.92;;
14892;SDS011;7538;53.626;9.906;2023-07-31T00:48:04;7.07;;;2.50;;
14892;SDS011;7538;53.626;9.906;2023-07-31T00:50:32;8.70;;;2.95;;
14892;SDS011;7538;53.626;9.906;2023-07-31T00:53:08;6.78;;;2.55;;
14892;SDS011;7538;53.626;9.906;2023-07-31T00:55:35;7.18;;;2.50;;
14892;SDS011;7538;53.626;9.906;2023-07-31T00:58:02;4.65;;;2.67;;
14892;SDS011;7538;53.626;9.906;2023-07-31T01:00:29;10.27;;;2.80;;
14892;SDS011;7538;53.626;9.906;2023-07-31T01:02:56;7.50;;;2.80;;
14892;SDS011;7538;53.626;9.906;2023-07-31T01:05:25;4.78;;;2.50;;
14892;SDS011;7538;53.626;9.906;2023-07-31T01:08:00;6.80;;;3.00;;
14892;SDS011;7538;53.626;9.906;2023-07-31T01:10:36;7.93;;;3.08;;
14892;SDS011;7538;53.626;9.906;2023-07-31T01:13:12;8.70;;;2.47;;
14892;SDS011;7538;53.626;9.906;2023-07-31T01:15:39;6.10;;;2.85;;
14892;SDS011;7538;53.626;9.906;2023-07-31T01:18:06;5.95;;;2.78;;
14892;SDS011;7538;53.626;9.906;2023-07-31T01:20:33;7.28;;;2.70;;
14892;SDS011;7538;53.626;9.906;2023-07-31T01:23:22;4.85;;;2.63;;
14892;SDS011;7538;53.626;9.906;2023-07-31T01:26:02;8.75;;;2.55;;
14892;SDS011;7538;53.626;9.906;2023-07-31T01:28:33;8.68;;;3.08;;
14892;SDS011;7538;53.626;9.906;2023-07-31T01:31:07;9.18;;;3.08;;
14892;SDS011;7538;53.626;9.906;2023-07-31T01:33:35;9.18;;;3.00;;
14892;SDS011;7538;53.626;9.906;2023-07-31T01:36:04;6.20;;;3.22;;
14892;SDS011;7538;53.626;9.906;2023-07-31T01:38:31;6.28;;;2.88;;
14892;SDS011;7538;53.626;9.906;2023-07-31T01:40:58;5.95;;;3.10;;
14892;SDS011;7538;53.626;9.906;2023-07-31T01:43:26;5.82;;;2.65;;
14892;SDS011;7538;53.626;9.906;2023-07-31T01:45:53;5.90;;;2.85;;
14892;SDS011;7538;53.626;9.906;2023-07-31T01:48:20;10.07;;;3.38;;
14892;SDS011;7538;53.626;9.906;2023-07-31T01:50:47;10.02;;;2.65;;
14892;SDS011;7538;53.626;9.906;2023-07-31T01:53:14;8.30;;;3.17;;
14892;SDS011;7538;53.626;9.906;2023-07-31T01:55:41;7.03;;;3.35;;
14892;SDS011;7538;53.626;9.906;2023-07-31T01:58:08;7.25;;;3.20;;
14892;SDS011;7538;53.626;9.906;2023-07-31T02:00:37;5.40;;;3.20;;
14892;SDS011;7538;53.626;9.906;2023-07-31T02:03:03;6.13;;;3.00;;
14892;SDS011;7538;53.626;9.906;2023-07-31T02:05:30;5.15;;;3.08;;
14892;SDS011;7538;53.626;9.906;2023-07-31T02:07:57;6.75;;;3.08;;
14892;SDS011;7538;53.626;9.906;2023-07-31T02:10:24;7.82;;;3.05;;
14892;SDS011;7538;53.626;9.906;2023-07-31T02:12:50;7.50;;;3.42;;
14892;SDS011;7538;53.626;9.906;2023-07-31T02:15:17;6.65;;;3.13;;
14892;SDS011;7538;53.626;9.906;2023-07-31T02:17:45;7.53;;;3.60;;
14892;SDS011;7538;53.626;9.906;2023-07-31T02:20:12;9.82;;;3.33;;
14892;SDS011;7538;53.626;9.906;2023-07-31T02:22:39;7.00;;;3.03;;
14892;SDS011;7538;53.626;9.906;2023-07-31T02:25:06;8.75;;;3.70;;
14892;SDS011;7538;53.626;9.906;2023-07-31T02:27:34;7.20;;;3.30;;
14892;SDS011;7538;53.626;9.906;2023-07-31T02:30:01;6.68;;;3.35;;
14892;SDS011;7538;53.626;9.906;2023-07-31T02:32:27;11.35;;;3.78;;
14892;SDS011;7538;53.626;9.906;2023-07-31T02:34:56;9.30;;;3.50;;
14892;SDS011;7538;53.626;9.906;2023-07-31T02:37:23;7.18;;;3.20;;
14892;SDS011;7538;53.626;9.906;2023-07-31T02:39:51;4.50;;;3.10;;
14892;SDS011;7538;53.626;9.906;2023-07-31T02:42:17;7.20;;;3.03;;
14892;SDS011;7538;53.626;9.906;2023-07-31T02:44:44;6.13;;;3.65;;
14892;SDS011;7538;53.626;9.906;2023-07-31T02:47:11;6.63;;;3.40;;
14892;SDS011;7538;53.626;9.906;2023-07-31T02:49:38;9.35;;;3.80;;
14892;SDS011;7538;53.626;9.906;2023-07-31T02:52:07;6.72;;;3.70;;
14892;SDS011;7538;53.626;9.906;2023-07-31T02:54:33;7.20;;;3.55;;
14892;SDS011;7538;53.626;9.906;2023-07-31T02:57:00;6.47;;;3.70;;
14892;SDS011;7538;53.626;9.906;2023-07-31T02:59:27;6.57;;;3.38;;
14892;SDS011;7538;53.626;9.906;2023-07-31T03:01:54;6.53;;;3.47;;
14892;SDS011;7538;53.626;9.906;2023-07-31T03:04:21;6.43;;;3.60;;
14892;SDS011;7538;53.626;9.906;2023-07-31T03:06:48;8.25;;;3.45;;
14892;SDS011;7538;53.626;9.906;2023-07-31T03:09:16;8.68;;;3.80;;
14892;SDS011;7538;53.626;9.906;2023-07-31T03:11:43;4.82;;;3.72;;
14892;SDS011;7538;53.626;9.906;2023-07-31T03:14:10;5.65;;;3.15;;
14892;SDS011;7538;53.626;9.906;2023-07-31T03:16:36;7.95;;;3.60;;
14892;SDS011;7538;53.626;9.906;2023-07-31T03:19:03;6.55;;;3.50;;
14892;SDS011;7538;53.626;9.906;2023-07-31T03:21:30;6.88;;;3.40;;
14892;SDS011;7538;53.626;9.906;2023-07-31T03:23:57;5.93;;;3.78;;
14892;SDS011;7538;53.626;9.906;2023-07-31T03:26:25;4.63;;;3.25;;
14892;SDS011;7538;53.626;9.906;2023-07-31T03:28:51;6.00;;;3.47;;
14892;SDS011;7538;53.626;9.906;2023-07-31T03:31:18;6.20;;;3.45;;
14892;SDS011;7538;53.626;9.906;2023-07-31T03:33:45;6.10;;;3.22;;
14892;SDS011;7538;53.626;9.906;2023-07-31T03:36:12;9.50;;;3.58;;
14892;SDS011;7538;53.626;9.906;2023-07-31T03:38:38;7.85;;;3.63;;
14892;SDS011;7538;53.626;9.906;2023-07-31T03:41:05;7.95;;;3.45;;
14892;SDS011;7538;53.626;9.906;2023-07-31T03:43:33;8.43;;;3.83;;
14892;SDS011;7538;53.626;9.906;2023-07-31T03:46:03;8.75;;;3.38;;
14892;SDS011;7538;53.626;9.906;2023-07-31T03:48:59;5.22;;;3.80;;
14892;SDS011;7538;53.626;9.906;2023-07-31T03:51:26;6.28;;;3.70;;
14892;SDS011;7538;53.626;9.906;2023-07-31T03:53:53;6.18;;;3.65;;
14892;SDS011;7538;53.626;9.906;2023-07-31T03:56:20;7.57;;;3.20;;
14892;SDS011;7538;53.626;9.906;2023-07-31T03:58:48;5.35;;;2.90;;
14892;SDS011;7538;53.626;9.906;2023-07-31T04:01:15;4.82;;;3.30;;
14892;SDS011;7538;53.626;9.906;2023-07-31T04:03:43;5.80;;;3.25;;
14892;SDS011;7538;53.626;9.906;2023-07-31T04:06:09;6.05;;;3.50;;
14892;SDS011;7538;53.626;9.906;2023-07-31T04:08:36;4.60;;;3.33;;
14892;SDS011;7538;53.626;9.906;2023-07-31T04:11:03;5.50;;;3.40;;
14892;SDS011;7538;53.626;9.906;2023-07-31T04:13:30;5.68;;;3.47;;
14892;SDS011;7538;53.626;9.906;2023-07-31T04:15:58;8.00;;;3.30;;
14892;SDS011;7538;53.626;9.906;2023-07-31T04:18:24;7.10;;;3.08;;
14892;SDS011;7538;53.626;9.906;2023-07-31T04:20:52;4.57;;;3.28;;
14892;SDS011;7538;53.626;9.906;2023-07-31T04:23:18;4.75;;;2.60;;
14892;SDS011;7538;53.626;9.906;2023-07-31T04:25:45;5.53;;;3.00;;
14892;SDS011;7538;53.626;9.906;2023-07-31T04:28:12;5.43;;;3.58;;
14892;SDS011;7538;53.626;9.906;2023-07-31T04:30:39;5.22;;;3.28;;
14892;SDS011;7538;53.626;9.906;2023-07-31T04:33:07;5.00;;;3.30;;
14892;SDS011;7538;53.626;9.906;2023-07-31T04:35:34;5.03;;;3.50;;
14892;SDS011;7538;53.626;9.906;2023-07-31T04:38:01;4.47;;;3.55;;
14892;SDS011;7538;53.626;9.906;2023-07-31T04:40:28;4.63;;;3.33;;
14892;SDS011;7538;53.626;9.906;2023-07-31T04:42:54;4.40;;;2.78;;
14892;SDS011;7538;53.626;9.906;2023-07-31T04:45:21;4.28;;;2.90;;
14892;SDS011;7538;53.626;9.906;2023-07-31T04:47:48;5.60;;;3.35;;
14892;SDS011;7538;53.626;9.906;2023-07-31T04:50:16;3.22;;;2.90;;
14892;SDS011;7538;53.626;9.906;2023-07-31T04:52:43;6.00;;;2.88;;
14892;SDS011;7538;53.626;9.906;2023-07-31T04:55:10;3.40;;;2.80;;
14892;SDS011;7538;53.626;9.906;2023-07-31T04:57:36;3.75;;;2.80;;
14892;SDS011;7538;53.626;9.906;2023-07-31T05:00:03;3.50;;;2.72;;
14892;SDS011;7538;53.626;9.906;2023-07-31T05:02:31;3.53;;;2.67;;
14892;SDS011;7538;53.626;9.906;2023-07-31T05:04:58;5.40;;;2.45;;
14892;SDS011;7538;53.626;9.906;2023-07-31T05:07:27;2.92;;;2.30;;
14892;SDS011;7538;53.626;9.906;2023-07-31T05:09:54;3.33;;;2.72;;
14892;SDS011;7538;53.626;9.906;2023-07-31T05:12:21;4.47;;;3.08;;
14892;SDS011;7538;53.626;9.906;2023-07-31T05:14:47;2.90;;;2.60;;
14892;SDS011;7538;53.626;9.906;2023-07-31T05:17:14;2.50;;;2.28;;
14892;SDS011;7538;53.626;9.906;2023-07-31T05:19:41;3.67;;;2.88;;
14892;SDS011;7538;53.626;9.906;2023-07-31T05:22:08;5.40;;;2.85;;
14892;SDS011;7538;53.626;9.906;2023-07-31T05:24:36;3.08;;;2.53;;
14892;SDS011;7538;53.626;9.906;2023-07-31T05:27:03;2.55;;;2.30;;
14892;SDS011;7538;53.626;9.906;2023-07-31T05:29:30;4.18;;;2.45;;
14892;SDS011;7538;53.626;9.906;2023-07-31T05:31:57;2.40;;;2.20;;
14892;SDS011;7538;53.626;9.906;2023-07-31T05:34:24;2.55;;;2.35;;
14892;SDS011;7538;53.626;9.906;2023-07-31T05:36:51;2.33;;;2.13;;
14892;SDS011;7538;53.626;9.906;2023-07-31T05:39:18;2.58;;;2.38;;
14892;SDS011;7538;53.626;9.906;2023-07-31T05:41:46;2.60;;;2.30;;
14892;SDS011;7538;53.626;9.906;2023-07-31T05:44:13;2.40;;;2.13;;
14892;SDS011;7538;53.626;9.906;2023-07-31T05:46:40;4.65;;;2.25;;
14892;SDS011;7538;53.626;9.906;2023-07-31T05:49:06;2.40;;;2.20;;
14892;SDS011;7538;53.626;9.906;2023-07-31T05:51:33;2.67;;;2.15;;
14892;SDS011;7538;53.626;9.906;2023-07-31T05:54:00;3.50;;;2.30;;
14892;SDS011;7538;53.626;9.906;2023-07-31T05:56:27;2.70;;;2.50;;
14892;SDS011;7538;53.626;9.906;2023-07-31T05:58:55;2.28;;;2.08;;
14892;SDS011;7538;53.626;9.906;2023-07-31T06:01:22;3.72;;;2.58;;
14892;SDS011;7538;53.626;9.906;2023-07-31T06:03:49;2.63;;;2.42;;
14892;SDS011;7538;53.626;9.906;2023-07-31T06:06:15;3.55;;;2.70;;
14892;SDS011;7538;53.626;9.906;2023-07-31T06:08:42;2.45;;;2.25;;
14892;SDS011;7538;53.626;9.906;2023-07-31T06:11:09;2.38;;;2.17;;
14892;SDS011;7538;53.626;9.906;2023-07-31T06:13:36;2.42;;;2.22;;
14892;SDS011;7538;53.626;9.906;2023-07-31T06:16:04;2.72;;;2.47;;
14892;SDS011;7538;53.626;9.906;2023-07-31T06:18:31;3.03;;;2.28;;
14892;SDS011;7538;53.626;9.906;2023-07-31T06:20:58;2.42;;;2.22;;
14892;SDS011;7538;53.626;9.906;2023-07-31T06:23:25;2.28;;;2.08;;
14892;SDS011;7538;53.626;9.906;2023-07-31T06:25:51;2.45;;;2.25;;
14892;SDS011;7538;53.626;9.906;2023-07-31T06:28:18;3.08;;;2.78;;
14892;SDS011;7538;53.626;9.906;2023-07-31T06:30:45;2.25;;;2.05;;
14892;SDS011;7538;53.626;9.906;2023-07-31T06:33:13;2.50;;;2.22;;
14892;SDS011;7538;53.626;9.906;2023-07-31T06:35:40;2.72;;;2.53;;
14892;SDS011;7538;53.626;9.906;2023-07-31T06:38:07;2.67;;;2.45;;
14892;SDS011;7538;53.626;9.906;2023-07-31T06:40:33;2.85;;;2.65;;
14892;SDS011;7538;53.626;9.906;2023-07-31T06:43:00;2.30;;;2.10;;
14892;SDS011;7538;53.626;9.906;2023-07-31T06:45:32;3.10;;;2.30;;
14892;SDS011;7538;53.626;9.906;2023-07-31T06:47:59;2.60;;;2.40;;
14892;SDS011;7538;53.626;9.906;2023-07-31T06:50:28;2.60;;;2.40;;
14892;SDS011;7538;53.626;9.906;2023-07-31T06:52:55;3.47;;;2.55;;
14892;SDS011;7538;53.626;9.906;2023-07-31T06:55:22;2.72;;;2.53;;
14892;SDS011;7538;53.626;9.906;2023-07-31T06:57:50;2.78;;;2.58;;
14892;SDS011;7538;53.626;9.906;2023-07-31T07:00:19;2.42;;;2.17;;
14892;SDS011;7538;53.626;9.906;2023-07-31T07:02:48;3.60;;;3.08;;
14892;SDS011;7538;53.626;9.906;2023-07-31T07:05:15;3.75;;;2.80;;
14892;SDS011;7538;53.626;9.906;2023-07-31T07:07:44;2.70;;;2.50;;
14892;SDS011;7538;53.626;9.906;2023-07-31T07:10:11;2.58;;;2.38;;
14892;SDS011;7538;53.626;9.906;2023-07-31T07:12:38;3.10;;;2.50;;
14892;SDS011;7538;53.626;9.906;2023-07-31T07:15:06;2.38;;;2.20;;
14892;SDS011;7538;53.626;9.906;2023-07-31T07:17:33;2.50;;;2.33;;
14892;SDS011;7538;53.626;9.906;2023-07-31T07:20:00;2.78;;;2.10;;
14892;SDS011;7538;53.626;9.906;2023-07-31T07:22:28;3.70;;;2.38;;
14892;SDS011;7538;53.626;9.906;2023-07-31T07:24:56;2.67;;;2.22;;
14892;SDS011;7538;53.626;9.906;2023-07-31T07:27:23;2.67;;;2.30;;
14892;SDS011;7538;53.626;9.906;2023-07-31T07:29:50;3.05;;;2.50;;
14892;SDS011;7538;53.626;9.906;2023-07-31T07:32:18;3.50;;;2.15;;
14892;SDS011;7538;53.626;9.906;2023-07-31T07:34:45;2.67;;;2.28;;
14892;SDS011;7538;53.626;9.906;2023-07-31T07:37:13;2.10;;;1.90;;
14892;SDS011;7538;53.626;9.906;2023-07-31T07:39:40;2.50;;;2.30;;
14892;SDS011;7538;53.626;9.906;2023-07-31T07:42:13;2.60;;;2.00;;
14892;SDS011;7538;53.626;9.906;2023-07-31T07:44:39;2.30;;;2.10;;
14892;SDS011;7538;53.626;9.906;2023-07-31T07:47:06;2.25;;;2.05;;
14892;SDS011;7538;53.626;9.906;2023-07-31T07:49:33;3.03;;;2.38;;
14892;SDS011;7538;53.626;9.906;2023-07-31T07:52:00;2.25;;;2.05;;
14892;SDS011;7538;53.626;9.906;2023-07-31T07:54:27;2.47;;;2.28;;
14892;SDS011;7538;53.626;9.906;2023-07-31T07:56:54;2.50;;;2.30;;
14892;SDS011;7538;53.626;9.906;2023-07-31T07:59:22;2.65;;;2.45;;
14892;SDS011;7538;53.626;9.906;2023-07-31T08:01:49;2.30;;;2.20;;
14892;SDS011;7538;53.626;9.906;2023-07-31T08:04:16;2.47;;;1.95;;
14892;SDS011;7538;53.626;9.906;2023-07-31T08:06:42;2.03;;;1.83;;
14892;SDS011;7538;53.626;9.906;2023-07-31T08:09:09;3.30;;;2.15;;
14892;SDS011;7538;53.626;9.906;2023-07-31T08:11:36;2.10;;;2.00;;
14892;SDS011;7538;53.626;9.906;2023-07-31T08:14:03;1.90;;;1.80;;
14892;SDS011;7538;53.626;9.906;2023-07-31T08:16:31;3.45;;;2.45;;
14892;SDS011;7538;53.626;9.906;2023-07-31T08:18:58;2.70;;;2.50;;
14892;SDS011;7538;53.626;9.906;2023-07-31T08:21:24;1.90;;;1.65;;
14892;SDS011;7538;53.626;9.906;2023-07-31T08:23:51;4.07;;;2.28;;
14892;SDS011;7538;53.626;9.906;2023-07-31T08:26:18;2.33;;;2.13;;
14892;SDS011;7538;53.626;9.906;2023-07-31T08:28:46;2.47;;;2.00;;
14892;SDS011;7538;53.626;9.906;2023-07-31T08:31:12;2.83;;;2.00;;
14892;SDS011;7538;53.626;9.906;2023-07-31T08:33:40;2.13;;;1.90;;
14892;SDS011;7538;53.626;9.906;2023-07-31T08:36:07;2.17;;;1.98;;
14892;SDS011;7538;53.626;9.906;2023-07-31T08:38:34;2.83;;;1.90;;
14892;SDS011;7538;53.626;9.906;2023-07-31T08:41:02;2.47;;;1.67;;
14892;SDS011;7538;53.626;9.906;2023-07-31T08:43:29;1.98;;;1.77;;
14892;SDS011;7538;53.626;9.906;2023-07-31T08:45:57;2.15;;;1.67;;
14892;SDS011;7538;53.626;9.906;2023-07-31T08:48:24;1.85;;;1.60;;
14892;SDS011;7538;53.626;9.906;2023-07-31T08:50:53;1.65;;;1.55;;
14892;SDS011;7538;53.626;9.906;2023-07-31T08:53:20;1.75;;;1.58;;
14892;SDS011;7538;53.626;9.906;2023-07-31T08:55:47;4.10;;;1.80;;
14892;SDS011;7538;53.626;9.906;2023-07-31T08:58:15;1.65;;;1.48;;
14892;SDS011;7538;53.626;9.906;2023-07-31T09:00:43;1.80;;;1.45;;
14892;SDS011;7538;53.626;9.906;2023-07-31T09:03:13;1.30;;;1.20;;
14892;SDS011;7538;53.626;9.906;2023-07-31T09:05:42;1.45;;;1.23;;
14892;SDS011;7538;53.626;9.906;2023-07-31T09:08:11;1.63;;;1.52;;
14892;SDS011;7538;53.626;9.906;2023-07-31T09:10:42;1.75;;;1.30;;
14892;SDS011;7538;53.626;9.906;2023-07-31T09:13:11;1.52;;;1.15;;
14892;SDS011;7538;53.626;9.906;2023-07-31T09:15:38;1.25;;;1.10;;
14892;SDS011;7538;53.626;9.906;2023-07-31T09:18:06;1.60;;;1.42;;
14892;SDS011;7538;53.626;9.906;2023-07-31T09:20:34;1.80;;;1.13;;
14892;SDS011;7538;53.626;9.906;2023-07-31T09:23:06;1.40;;;1.30;;
14892;SDS011;7538;53.626;9.906;2023-07-31T09:25:36;1.92;;;1.50;;
14892;SDS011;7538;53.626;9.906;2023-07-31T09:28:04;1.48;;;1.38;;
14892;SDS011;7538;53.626;9.906;2023-07-31T09:30:36;2.80;;;1.33;;
14892;SDS011;7538;53.626;9.906;2023-07-31T09:33:11;1.67;;;1.35;;
14892;SDS011;7538;53.626;9.906;2023-07-31T09:35:38;1.48;;;1.30;;
14892;SDS011;7538;53.626;9.906;2023-07-31T09:38:06;2.03;;;1.20;;
14892;SDS011;7538;53.626;9.906;2023-07-31T09:40:37;1.30;;;1.20;;
14892;SDS011;7538;53.626;9.906;2023-07-31T09:43:05;1.70;;;1.20;;
14892;SDS011;7538;53.626;9.906;2023-07-31T09:45:34;2.00;;;1.38;;
14892;SDS011;7538;53.626;9.906;2023-07-31T09:48:02;1.73;;;1.40;;
14892;SDS011;7538;53.626;9.906;2023-07-31T09:50:34;2.10;;;1.73;;
14892;SDS011;7538;53.626;9.906;2023-07-31T09:53:02;2.00;;;1.60;;
14892;SDS011;7538;53.626;9.906;2023-07-31T09:55:30;1.63;;;1.30;;
14892;SDS011;7538;53.626;9.906;2023-07-31T09:57:59;1.70;;;1.42;;
14892;SDS011;7538;53.626;9.906;2023-07-31T10:00:28;1.63;;;1.52;;
14892;SDS011;7538;53.626;9.906;2023-07-31T10:02:58;1.85;;;1.30;;
14892;SDS011;7538;53.626;9.906;2023-07-31T10:05:27;3.30;;;2.80;;
14892;SDS011;7538;53.626;9.906;2023-07-31T10:07:58;2.17;;;1.98;;
14892;SDS011;7538;53.626;9.906;2023-07-31T10:10:25;2.50;;;1.40;;
14892;SDS011;7538;53.626;9.906;2023-07-31T10:12:55;2.30;;;1.70;;
14892;SDS011;7538;53.626;9.906;2023-07-31T10:15:29;1.48;;;1.38;;
14892;SDS011;7538;53.626;9.906;2023-07-31T10:17:57;1.48;;;1.38;;
14892;SDS011;7538;53.626;9.906;2023-07-31T10:20:25;2.65;;;1.63;;
14892;SDS011;7538;53.626;9.906;2023-07-31T10:22:53;1.40;;;1.30;;
14892;SDS011;7538;53.626;9.906;2023-07-31T10:25:21;1.80;;;1.10;;
14892;SDS011;7538;53.626;9.906;2023-07-31T10:31:09;1.40;;;1.20;;
14892;SDS011;7538;53.626;9.906;2023-07-31T10:33:35;1.75;;;1.30;;
14892;SDS011;7538;53.626;9.906;2023-07-31T10:36:13;1.88;;;1.45;;
14892;SDS011;7538;53.626;9.906;2023-07-31T10:38:41;2.00;;;1.20;;
14892;SDS011;7538;53.626;9.906;2023-07-31T10:41:08;1.33;;;1.10;;
14892;SDS011;7538;53.626;9.906;2023-07-31T10:43:36;1.85;;;1.23;;
14892;SDS011;7538;53.626;9.906;2023-07-31T10:46:06;1.30;;;1.20;;
14892;SDS011;7538;53.626;9.906;2023-07-31T10:48:35;2.10;;;1.30;;
14892;SDS011;7538;53.626;9.906;2023-07-31T10:51:06;1.33;;;1.23;;
14892;SDS011;7538;53.626;9.906;2023-07-31T10:53:35;1.20;;;1.10;;
14892;SDS011;7538;53.626;9.906;2023-07-31T10:56:05;1.70;;;1.10;;
14892;SDS011;7538;53.626;9.906;2023-07-31T10:58:33;1.70;;;0.88;;
14892;SDS011;7538;53.626;9.906;2023-07-31T11:01:01;1.42;;;1.30;;
14892;SDS011;7538;53.626;9.906;2023-07-31T11:03:41;1.55;;;0.80;;
14892;SDS011;7538;53.626;9.906;2023-07-31T11:06:09;0.85;;;0.60;;
14892;SDS011;7538;53.626;9.906;2023-07-31T11:08:41;0.70;;;0.70;;
14892;SDS011;7538;53.626;9.906;2023-07-31T11:11:09;1.33;;;0.90;;
14892;SDS011;7538;53.626;9.906;2023-07-31T11:13:41;0.88;;;0.50;;
14892;SDS011;7538;53.626;9.906;2023-07-31T11:16:09;0.70;;;0.70;;
14892;SDS011;7538;53.626;9.906;2023-07-31T11:18:42;0.63;;;0.60;;
14892;SDS011;7538;53.626;9.906;2023-07-31T11:21:11;1.00;;;0.90;;
14892;SDS011;7538;53.626;9.906;2023-07-31T11:23:39;1.45;;;0.70;;
14892;SDS011;7538;53.626;9.906;2023-07-31T11:26:06;1.10;;;0.90;;
14892;SDS011;7538;53.626;9.906;2023-07-31T11:28:34;1.92;;;0.98;;
14892;SDS011;7538;53.626;9.906;2023-07-31T11:31:09;1.02;;;0.80;;
14892;SDS011;7538;53.626;9.906;2023-07-31T11:33:37;1.45;;;0.90;;
14892;SDS011;7538;53.626;9.906;2023-07-31T11:36:06;1.42;;;1.00;;
14892;SDS011;7538;53.626;9.906;2023-07-31T11:38:33;1.83;;;1.00;;
14892;SDS011;7538;53.626;9.906;2023-07-31T11:41:01;1.42;;;1.00;;
14892;SDS011;7538;53.626;9.906;2023-07-31T11:43:30;1.23;;;1.00;;
14892;SDS011;7538;53.626;9.906;2023-07-31T11:45:58;1.08;;;0.88;;
14892;SDS011;7538;53.626;9.906;2023-07-31T11:48:28;1.52;;;1.00;;
14892;SDS011;7538;53.626;9.906;2023-07-31T11:50:58;3.60;;;1.38;;
14892;SDS011;7538;53.626;9.906;2023-07-31T11:53:28;2.05;;;1.00;;
14892;SDS011;7538;53.626;9.906;2023-07-31T11:55:59;1.60;;;0.90;;
14892;SDS011;7538;53.626;9.906;2023-07-31T11:58:27;1.23;;;0.90;;
14892;SDS011;7538;53.626;9.906;2023-07-31T12:00:56;1.70;;;1.17;;
14892;SDS011;7538;53.626;9.906;2023-07-31T12:03:24;1.27;;;0.85;;
14892;SDS011;7538;53.626;9.906;2023-07-31T12:05:51;1.48;;;1.00;;
14892;SDS011;7538;53.626;9.906;2023-07-31T12:08:22;1.30;;;1.10;;
14892;SDS011;7538;53.626;9.906;2023-07-31T12:11:01;3.22;;;0.90;;
14892;SDS011;7538;53.626;9.906;2023-07-31T12:13:30;1.85;;;1.20;;
14892;SDS011;7538;53.626;9.906;2023-07-31T12:15:58;2.90;;;1.52;;
14892;SDS011;7538;53.626;9.906;2023-07-31T12:18:29;1.90;;;1.20;;
14892;SDS011;7538;53.626;9.906;2023-07-31T12:21:04;0.95;;;0.70;;
14892;SDS011;7538;53.626;9.906;2023-07-31T12:23:33;2.05;;;0.90;;
14892;SDS011;7538;53.626;9.906;2023-07-31T12:26:03;1.20;;;0.80;;
14892;SDS011;7538;53.626;9.906;2023-07-31T12:28:34;1.75;;;0.85;;
14892;SDS011;7538;53.626;9.906;2023-07-31T12:31:03;1.00;;;0.90;;
14892;SDS011;7538;53.626;9.906;2023-07-31T12:33:31;1.10;;;0.90;;
14892;SDS011;7538;53.626;9.906;2023-07-31T12:36:00;1.92;;;1.20;;
14892;SDS011;7538;53.626;9.906;2023-07-31T12:38:27;2.30;;;1.90;;
14892;SDS011;7538;53.626;9.906;2023-07-31T12:40:54;5.15;;;3.35;;
14892;SDS011;7538;53.626;9.906;2023-07-31T12:43:22;1.98;;;1.50;;
14892;SDS011;7538;53.626;9.906;2023-07-31T12:45:49;2.17;;;1.58;;
14892;SDS011;7538;53.626;9.906;2023-07-31T12:48:16;11.90;;;6.32;;
14892;SDS011;7538;53.626;9.906;2023-07-31T12:50:43;3.13;;;2.25;;
14892;SDS011;7538;53.626;9.906;2023-07-31T12:53:10;1.67;;;1.50;;
14892;SDS011;7538;53.626;9.906;2023-07-31T12:55:39;3.47;;;2.60;;
14892;SDS011;7538;53.626;9.906;2023-07-31T12:58:05;2.85;;;1.50;;
14892;SDS011;7538;53.626;9.906;2023-07-31T13:00:34;4.95;;;2.45;;
14892;SDS011;7538;53.626;9.906;2023-07-31T13:03:01;1.48;;;1.30;;
14892;SDS011;7538;53.626;9.906;2023-07-31T13:05:41;3.72;;;2.40;;
14892;SDS011;7538;53.626;9.906;2023-07-31T13:08:09;1.60;;;1.27;;
14892;SDS011;7538;53.626;9.906;2023-07-31T13:10:36;1.40;;;1.10;;
14892;SDS011;7538;53.626;9.906;2023-07-31T13:13:04;10.10;;;6.28;;
14892;SDS011;7538;53.626;9.906;2023-07-31T13:15:38;2.58;;;1.08;;
14892;SDS011;7538;53.626;9.906;2023-07-31T13:18:09;5.95;;;2.97;;
14892;SDS011;7538;53.626;9.906;2023-07-31T13:20:37;18.42;;;8.13;;
14892;SDS011;7538;53.626;9.906;2023-07-31T13:23:04;8.20;;;3.65;;
14892;SDS011;7538;53.626;9.906;2023-07-31T13:25:46;1.80;;;1.40;;
14892;SDS011;7538;53.626;9.906;2023-07-31T13:28:14;1.85;;;1.67;;
14892;SDS011;7538;53.626;9.906;2023-07-31T13:30:42;1.45;;;1.35;;
14892;SDS011;7538;53.626;9.906;2023-07-31T13:33:09;1.70;;;1.00;;
14892;SDS011;7538;53.626;9.906;2023-07-31T13:35:35;0.95;;;0.85;;
14892;SDS011;7538;53.626;9.906;2023-07-31T13:38:02;1.75;;;1.08;;
14892;SDS011;7538;53.626;9.906;2023-07-31T13:40:31;1.38;;;1.15;;
14892;SDS011;7538;53.626;9.906;2023-07-31T13:43:00;1.70;;;1.60;;
14892;SDS011;7538;53.626;9.906;2023-07-31T13:45:28;1.60;;;1.50;;
14892;SDS011;7538;53.626;9.906;2023-07-31T13:53:46;2.22;;;1.50;;
14892;SDS011;7538;53.626;9.906;2023-07-31T13:56:13;1.85;;;1.63;;
14892;SDS011;7538;53.626;9.906;2023-07-31T13:58:39;2.40;;;2.20;;
14892;SDS011;7538;53.626;9.906;2023-07-31T14:01:06;3.85;;;1.98;;
14892;SDS011;7538;53.626;9.906;2023-07-31T14:16:00;3.13;;;2.90;;
14892;SDS011;7538;53.626;9.906;2023-07-31T14:24:16;2.30;;;2.10;;
14892;SDS011;7538;53.626;9.906;2023-07-31T14:26:43;2.03;;;1.70;;
14892;SDS011;7538;53.626;9.906;2023-07-31T14:29:11;4.85;;;1.63;;
14892;SDS011;7538;53.626;9.906;2023-07-31T14:31:38;3.03;;;1.77;;
14892;SDS011;7538;53.626;9.906;2023-07-31T14:43:17;3.35;;;2.83;;
14892;SDS011;7538;53.626;9.906;2023-07-31T14:45:46;4.40;;;3.00;;
14892;SDS011;7538;53.626;9.906;2023-07-31T14:48:12;3.25;;;2.95;;
14892;SDS011;7538;53.626;9.906;2023-07-31T14:50:39;3.67;;;2.80;;
14892;SDS011;7538;53.626;9.906;2023-07-31T14:53:06;2.85;;;2.05;;
14892;SDS011;7538;53.626;9.906;2023-07-31T14:55:33;2.40;;;1.60;;
14892;SDS011;7538;53.626;9.906;2023-07-31T14:57:59;2.40;;;2.20;;
14892;SDS011;7538;53.626;9.906;2023-07-31T15:00:26;4.10;;;3.35;;
14892;SDS011;7538;53.626;9.906;2023-07-31T15:06:05;3.83;;;2.55;;
14892;SDS011;7538;53.626;9.906;2023-07-31T15:23:25;3.33;;;1.88;;
14892;SDS011;7538;53.626;9.906;2023-07-31T15:25:52;2.25;;;1.98;;
14892;SDS011;7538;53.626;9.906;2023-07-31T15:28:19;2.05;;;1.48;;
14892;SDS011;7538;53.626;9.906;2023-07-31T15:30:45;2.33;;;1.80;;
14892;SDS011;7538;53.626;9.906;2023-07-31T15:33:12;2.13;;;1.65;;
14892;SDS011;7538;53.626;9.906;2023-07-31T15:35:39;2.53;;;2.25;;
14892;SDS011;7538;53.626;9.906;2023-07-31T15:38:07;2.92;;;2.08;;
14892;SDS011;7538;53.626;9.906;2023-07-31T15:40:35;3.90;;;2.50;;
14892;SDS011;7538;53.626;9.906;2023-07-31T15:49:46;3.05;;;2.53;;
14892;SDS011;7538;53.626;9.906;2023-07-31T15:52:13;3.55;;;3.00;;
14892;SDS011;7538;53.626;9.906;2023-07-31T15:58:03;5.28;;;3.78;;
14892;SDS011;7538;53.626;9.906;2023-07-31T16:03:05;3.20;;;2.90;;
14892;SDS011;7538;53.626;9.906;2023-07-31T16:05:32;4.88;;;3.38;;
14892;SDS011;7538;53.626;9.906;2023-07-31T16:13:57;4.30;;;3.35;;
14892;SDS011;7538;53.626;9.906;2023-07-31T16:16:27;4.88;;;3.50;;
14892;SDS011;7538;53.626;9.906;2023-07-31T16:18:53;4.03;;;3.47;;